createdAt,value
2023-05-03T00:02:26.834Z,102011.09
2023-05-03T00:04:57.243Z,102004.47
2023-05-03T00:07:26.101Z,102009.22
2023-05-03T00:09:53.078Z,102003.22
2023-05-03T00:12:20.007Z,102006.06
2023-05-03T00:14:46.876Z,102013.09
2023-05-03T00:17:13.768Z,102015.59
2023-05-03T00:19:43.596Z,102009.56
2023-05-03T00:22:10.353Z,102004.25
2023-05-03T00:24:37.216Z,102022.69
2023-05-03T00:27:05.307Z,102012.81
2023-05-03T00:29:32.086Z,102016.34
2023-05-03T00:31:59.984Z,102016.41
2023-05-03T00:34:29.716Z,102007.41
2023-05-03T00:36:58.731Z,102015.28
2023-05-03T00:39:31.895Z,102017.88
2023-05-03T00:42:00.127Z,102023.91
2023-05-03T00:44:33.071Z,102018.31
2023-05-03T00:47:02.452Z,102013.25
2023-05-03T00:49:31.720Z,102025.72
2023-05-03T00:51:59.442Z,102023.84
2023-05-03T00:54:35.322Z,102014.31
2023-05-03T00:57:05.440Z,102017.00
2023-05-03T00:59:34.475Z,102026.00
2023-05-03T01:02:01.964Z,102029.03
2023-05-03T01:04:31.525Z,102034.56
2023-05-03T01:07:15.041Z,102036.44
2023-05-03T01:10:34.625Z,102034.84
2023-05-03T01:14:01.116Z,102029.31
2023-05-03T01:17:13.228Z,102035.06
2023-05-03T01:19:56.366Z,102026.63
2023-05-03T01:22:49.080Z,102036.97
2023-05-03T01:25:16.516Z,102036.38
2023-05-03T01:27:43.436Z,102037.19
2023-05-03T01:30:12.930Z,102034.72
2023-05-03T01:33:13.709Z,102039.44
2023-05-03T01:35:50.928Z,102041.44
2023-05-03T01:38:18.958Z,102037.16
2023-05-03T01:40:55.038Z,102033.25
2023-05-03T01:43:24.893Z,102041.28
2023-05-03T01:45:54.712Z,102036.31
2023-05-03T01:48:24.510Z,102046.25
2023-05-03T01:50:51.209Z,102047.06
2023-05-03T01:53:18.044Z,102046.38
2023-05-03T01:55:44.690Z,102047.44
2023-05-03T01:58:12.118Z,102056.34
2023-05-03T02:00:39.136Z,102048.47
2023-05-03T02:03:05.932Z,102056.47
2023-05-03T02:05:32.696Z,102055.00
2023-05-03T02:07:59.415Z,102057.72
2023-05-03T02:10:26.359Z,102054.19
2023-05-03T02:12:55.525Z,102056.94
2023-05-03T02:15:25.319Z,102056.03
2023-05-03T02:17:52.183Z,102051.97
2023-05-03T02:20:19.352Z,102051.97
2023-05-03T02:22:46.067Z,102052.59
2023-05-03T02:25:15.120Z,102067.44
2023-05-03T02:27:44.593Z,102062.44
2023-05-03T02:30:12.209Z,102072.88
2023-05-03T02:32:39.052Z,102072.00
2023-05-03T02:35:06.621Z,102069.78
2023-05-03T02:37:33.378Z,102076.88
2023-05-03T02:40:00.195Z,102073.63
2023-05-03T02:42:26.846Z,102063.03
2023-05-03T02:44:56.353Z,102072.00
2023-05-03T02:47:26.819Z,102071.28
2023-05-03T02:49:56.956Z,102065.34
2023-05-03T02:52:32.358Z,102076.91
2023-05-03T02:54:59.247Z,102074.44
2023-05-03T02:57:26.096Z,102072.09
2023-05-03T02:59:53.129Z,102072.19
2023-05-03T03:02:19.867Z,102078.50
2023-05-03T03:04:46.645Z,102070.50
2023-05-03T03:07:13.466Z,102078.44
2023-05-03T03:09:42.769Z,102086.63
2023-05-03T03:12:09.673Z,102078.72
2023-05-03T03:14:36.515Z,102086.81
2023-05-03T03:17:08.886Z,102079.88
2023-05-03T03:19:35.745Z,102072.06
2023-05-03T03:22:02.415Z,102084.19
2023-05-03T03:24:29.817Z,102068.03
2023-05-03T03:26:56.712Z,102070.38
2023-05-03T03:29:25.799Z,102076.69
2023-05-03T03:31:54.967Z,102078.31
2023-05-03T03:34:21.851Z,102074.16
2023-05-03T03:36:48.676Z,102072.53
2023-05-03T03:39:15.697Z,102074.34
2023-05-03T03:41:45.001Z,102073.34
2023-05-03T03:44:11.783Z,102074.97
2023-05-03T03:46:38.585Z,102078.25
2023-05-03T03:49:05.335Z,102081.59
2023-05-03T03:51:43.868Z,102071.66
2023-05-03T03:54:10.553Z,102069.53
2023-05-03T03:56:37.252Z,102070.16
2023-05-03T03:59:03.902Z,102074.53
2023-05-03T04:01:30.697Z,102075.34
2023-05-03T04:03:57.512Z,102070.06
2023-05-03T04:06:24.288Z,102078.00
2023-05-03T04:08:51.137Z,102074.22
2023-05-03T04:11:17.800Z,102086.28
2023-05-03T04:13:44.598Z,102086.00
2023-05-03T04:16:11.642Z,102082.41
2023-05-03T04:18:38.465Z,102070.72
2023-05-03T04:21:05.546Z,102078.56
2023-05-03T04:23:34.847Z,102075.78
2023-05-03T04:26:02.602Z,102079.69
2023-05-03T04:28:31.598Z,102071.97
2023-05-03T04:30:58.762Z,102075.47
2023-05-03T04:33:27.790Z,102076.00
2023-05-03T04:36:01.451Z,102091.34
2023-05-03T04:38:40.392Z,102088.50
2023-05-03T04:41:07.460Z,102094.81
2023-05-03T05:26:54.783Z,102121.91
2023-05-03T05:29:21.650Z,102124.13
2023-05-03T07:01:19.230Z,102178.16
2023-05-03T07:22:49.138Z,102193.91
2023-05-03T07:27:44.829Z,102192.44
2023-05-03T07:30:12.189Z,102192.72
2023-05-03T07:32:44.690Z,102196.88
2023-05-03T07:35:11.514Z,102189.09
2023-05-03T07:37:45.838Z,102186.91
2023-05-03T07:40:12.978Z,102194.03
2023-05-03T07:42:42.610Z,102195.38
2023-05-03T07:45:12.345Z,102193.88
2023-05-03T07:47:42.959Z,102199.53
2023-05-03T07:50:12.619Z,102195.47
2023-05-03T07:52:51.792Z,102188.34
2023-05-03T07:55:20.692Z,102192.75
2023-05-03T07:57:47.565Z,102186.63
2023-05-03T08:00:17.725Z,102198.91
2023-05-03T08:02:45.013Z,102187.94
2023-05-03T08:05:14.751Z,102209.22
2023-05-03T08:07:42.369Z,102205.25
2023-05-03T08:10:10.437Z,102197.38
2023-05-03T08:12:37.270Z,102197.53
2023-05-03T08:15:06.902Z,102200.28
2023-05-03T08:17:44.311Z,102203.38
2023-05-03T08:20:13.623Z,102208.16
2023-05-03T08:22:45.140Z,102207.41
2023-05-03T08:25:12.408Z,102201.16
2023-05-03T08:27:44.419Z,102212.84
2023-05-03T08:30:11.812Z,102199.91
2023-05-03T08:32:38.548Z,102215.44
2023-05-03T08:35:07.388Z,102205.78
2023-05-03T08:37:46.665Z,102211.38
2023-05-03T08:40:15.177Z,102212.63
2023-05-03T08:42:46.457Z,102213.09
2023-05-03T08:45:16.891Z,102214.03
2023-05-03T08:47:46.751Z,102213.22
2023-05-03T08:50:15.643Z,102214.06
2023-05-03T08:52:45.619Z,102207.38
2023-05-03T08:55:12.909Z,102215.56
2023-05-03T08:57:43.351Z,102217.31
2023-05-03T09:00:12.611Z,102217.91
2023-05-03T09:02:42.916Z,102220.41
2023-05-03T09:05:19.015Z,102218.94
2023-05-03T09:08:31.076Z,102212.06
2023-05-03T09:10:57.950Z,102205.78
2023-05-03T09:13:45.409Z,102212.22
2023-05-03T09:16:21.964Z,102216.50
2023-05-03T09:19:04.658Z,102211.81
2023-05-03T09:21:31.543Z,102215.50
2023-05-03T09:25:32.515Z,102217.75
2023-05-03T09:28:02.612Z,102220.69
2023-05-03T09:30:34.241Z,102223.09
2023-05-03T09:33:00.982Z,102217.47
2023-05-03T09:35:32.570Z,102212.78
2023-05-03T09:38:00.428Z,102221.53
2023-05-03T09:40:29.466Z,102219.78
2023-05-03T09:43:11.422Z,102233.78
2023-05-03T09:45:50.769Z,102230.69
2023-05-03T09:48:23.633Z,102226.72
2023-05-03T09:50:54.583Z,102229.09
2023-05-03T09:53:23.310Z,102223.28
2023-05-03T09:55:52.161Z,102226.56
2023-05-03T09:58:21.676Z,102215.03
2023-05-03T10:00:52.653Z,102222.91
2023-05-03T10:03:34.843Z,102229.31
2023-05-03T10:06:09.069Z,102220.72
2023-05-03T10:08:52.230Z,102218.22
2023-05-03T10:11:24.976Z,102212.00
2023-05-03T10:13:51.951Z,102222.56
2023-05-03T10:16:33.903Z,102218.31
2023-05-03T10:19:32.343Z,102217.22
2023-05-03T10:22:11.269Z,102218.38
2023-05-03T10:25:01.528Z,102218.88
2023-05-03T10:27:47.393Z,102221.34
2023-05-03T10:30:26.398Z,102224.97
2023-05-03T10:32:53.354Z,102218.81
2023-05-03T10:35:26.917Z,102218.25
2023-05-03T10:37:57.580Z,102216.63
2023-05-03T10:40:43.609Z,102213.31
2023-05-03T10:43:32.063Z,102213.22
2023-05-03T10:46:31.230Z,102212.22
2023-05-03T10:49:22.372Z,102214.75
2023-05-03T10:51:50.898Z,102214.75
2023-05-03T10:54:19.494Z,102208.84
2023-05-03T10:56:56.737Z,102205.97
2023-05-03T10:59:24.743Z,102212.81
2023-05-03T11:01:56.633Z,102215.97
2023-05-03T11:04:41.870Z,102213.22
2023-05-03T11:07:10.104Z,102214.97
2023-05-03T11:09:37.360Z,102218.13
2023-05-03T11:12:08.932Z,102217.66
2023-05-03T11:14:35.697Z,102212.19
2023-05-03T11:17:02.933Z,102216.84
2023-05-03T11:35:50.511Z,102210.00
2023-05-03T11:38:19.669Z,102206.78
2023-05-03T11:40:49.347Z,102209.63
2023-05-03T11:43:16.545Z,102202.34
2023-05-03T11:45:51.607Z,102215.41
2023-05-03T11:48:22.175Z,102205.41
2023-05-03T11:50:59.767Z,102215.13
2023-05-03T11:53:27.064Z,102206.66
2023-05-03T11:55:58.152Z,102206.41
2023-05-03T11:58:27.057Z,102202.13
2023-05-03T12:00:57.766Z,102204.91
2023-05-03T12:03:34.337Z,102202.63
2023-05-03T12:06:03.089Z,102203.94
2023-05-03T12:08:36.299Z,102210.59
2023-05-03T12:11:06.862Z,102215.84
2023-05-03T12:13:39.717Z,102217.91
2023-05-03T12:16:15.603Z,102204.47
2023-05-03T12:19:02.927Z,102212.78
2023-05-03T12:22:04.860Z,102207.94
2023-05-03T12:24:39.328Z,102199.72
2023-05-03T12:27:09.887Z,102203.41
2023-05-03T12:29:37.026Z,102210.22
2023-05-03T12:32:04.942Z,102204.38
2023-05-03T12:34:35.546Z,102208.97
2023-05-03T12:37:05.661Z,102195.81
2023-05-03T12:39:39.521Z,102193.06
2023-05-03T12:42:09.336Z,102197.06
2023-05-03T12:44:53.438Z,102199.13
2023-05-03T12:47:28.548Z,102198.63
2023-05-03T12:49:59.599Z,102198.78
2023-05-03T12:54:56.699Z,102203.16
2023-05-03T12:57:24.649Z,102190.13
2023-05-03T13:00:02.831Z,102190.09
2023-05-03T13:05:10.875Z,102185.00
2023-05-03T13:07:43.927Z,102191.03
2023-05-03T13:12:43.248Z,102179.84
2023-05-03T13:15:10.224Z,102177.84
2023-05-03T13:17:37.497Z,102176.41
2023-05-03T13:20:08.279Z,102180.81
2023-05-03T13:22:34.979Z,102182.66
2023-05-03T13:25:03.318Z,102180.94
2023-05-03T13:27:30.899Z,102173.63
2023-05-03T13:30:03.568Z,102175.63
2023-05-03T13:32:31.180Z,102172.06
2023-05-03T13:35:01.144Z,102173.25
2023-05-03T13:37:31.046Z,102167.72
2023-05-03T13:40:01.453Z,102167.72
2023-05-03T13:42:28.875Z,102169.09
2023-05-03T13:44:58.747Z,102163.03
2023-05-03T13:47:27.012Z,102164.28
2023-05-03T13:49:57.554Z,102161.66
2023-05-03T13:52:24.793Z,102162.50
2023-05-03T13:54:54.862Z,102158.00
2023-05-03T13:57:22.989Z,102158.84
2023-05-03T13:59:54.581Z,102152.66
2023-05-03T14:02:22.547Z,102142.41
2023-05-03T14:34:38.439Z,102147.50
2023-05-03T15:23:28.614Z,102121.16
2023-05-03T15:25:58.372Z,102117.41
2023-05-03T16:17:31.969Z,102106.25
2023-05-03T16:31:51.560Z,102099.38
2023-05-03T17:24:21.887Z,102061.88
2023-05-03T19:59:40.541Z,102062.34
2023-05-03T20:04:56.389Z,102067.03
2023-05-03T20:07:26.981Z,102075.94
2023-05-03T20:10:09.494Z,102070.81
2023-05-03T20:12:39.090Z,102089.66
2023-05-03T20:15:36.825Z,102076.91
2023-05-03T20:18:35.291Z,102078.97
2023-05-03T20:21:22.056Z,102086.38
2023-05-03T20:23:50.406Z,102095.16
2023-05-03T20:26:39.249Z,102087.19
2023-05-03T20:35:12.585Z,102093.25
2023-05-03T20:37:48.548Z,102083.84
2023-05-03T20:40:30.876Z,102087.31
2023-05-03T20:43:22.496Z,102084.25
2023-05-03T20:45:51.994Z,102082.59
2023-05-03T20:48:22.432Z,102079.31
2023-05-03T20:51:09.876Z,102088.25
2023-05-03T20:53:42.304Z,102079.19
2023-05-03T20:56:21.391Z,102077.94
2023-05-03T20:58:56.397Z,102075.41
2023-05-03T21:01:23.445Z,102067.72
2023-05-03T21:04:08.204Z,102069.78
2023-05-03T21:06:39.443Z,102069.31
2023-05-03T21:09:24.408Z,102067.72
2023-05-03T21:12:17.232Z,102068.47
2023-05-03T21:16:36.869Z,102072.03
2023-05-03T21:18:16.069Z,102067.41
2023-05-03T21:21:30.427Z,102067.41
2023-05-03T21:30:22.399Z,102063.34
2023-05-03T21:33:21.100Z,102070.56
2023-05-03T21:36:32.604Z,102056.66
2023-05-03T21:39:30.145Z,102059.25
2023-05-03T21:42:22.647Z,102065.50
2023-05-03T21:44:49.840Z,102059.50
2023-05-03T21:47:16.833Z,102056.16
2023-05-03T21:53:23.403Z,102056.84
2023-05-03T21:56:20.380Z,102065.00
2023-05-03T21:58:47.730Z,102051.03
2023-05-03T22:01:26.460Z,102055.75
2023-05-03T22:03:59.854Z,102053.13
2023-05-03T22:06:32.513Z,102060.25
2023-05-03T22:09:42.275Z,102060.13
2023-05-03T22:12:30.432Z,102054.94
2023-05-03T22:15:22.745Z,102059.06
2023-05-03T22:20:57.749Z,102056.47
2023-05-03T22:26:37.261Z,102061.69
2023-05-03T22:29:19.774Z,102067.47
2023-05-03T22:31:51.910Z,102070.47
2023-05-03T22:34:49.492Z,102067.22
2023-05-03T22:37:26.477Z,102062.47
2023-05-03T22:40:16.041Z,102058.53
2023-05-03T22:42:49.357Z,102053.75
2023-05-03T22:45:19.675Z,102056.88
2023-05-03T22:47:46.904Z,102046.31
2023-05-03T22:50:28.474Z,102049.03
2023-05-03T22:53:16.766Z,102044.06
2023-05-03T22:55:45.920Z,102056.41
2023-05-03T22:58:18.351Z,102048.03
2023-05-03T23:01:18.845Z,102046.50
2023-05-03T23:03:52.067Z,102053.88
2023-05-03T23:06:34.627Z,102043.53
2023-05-03T23:09:17.192Z,102043.66
2023-05-03T23:11:47.487Z,102045.47
2023-05-03T23:14:17.988Z,102037.50
2023-05-03T23:16:50.544Z,102040.00
2023-05-03T23:19:28.982Z,102046.94
2023-05-03T23:22:17.202Z,102041.47
2023-05-03T23:24:47.914Z,102048.00
2023-05-03T23:27:25.646Z,102048.25
2023-05-03T23:32:51.187Z,102043.16
2023-05-03T23:35:34.081Z,102038.59
2023-05-03T23:38:22.032Z,102033.47
2023-05-03T23:40:49.344Z,102034.47
2023-05-03T23:43:34.863Z,102043.31
2023-05-03T23:46:09.744Z,102028.53
2023-05-03T23:48:37.033Z,102035.94
2023-05-03T23:51:31.839Z,102029.19
2023-05-03T23:53:58.740Z,102031.75
2023-05-03T23:56:34.656Z,102028.47
